Time;durP1;ratioP1;P1;durP2;ratioP2;P2;SDS_P1;SDS_P2;PMS_P1;PMS_P2;Temp;Humidity;BMP_temperature;BMP_pressure;BME280_temperature;BME280_humidity;BME280_pressure;Samples;Min_cycle;Max_cycle;Signal;HPM_P1;HPM_P2
2023/09/26 00:02:20;;;;;;;;;;;12.90;57.00;;;8.55;100.00;96044.81;4997827;28;19909;-53
2023/09/26 00:04:47;;;;;;;;;;;12.90;57.10;;;8.56;100.00;96057.06;4992613;28;20276;-48
2023/09/26 00:07:13;;;;;;;;;;;12.90;57.20;;;8.54;100.00;96046.69;4994333;28;20395;-48
2023/09/26 00:09:39;;;;;;;;;;;12.90;57.20;;;8.54;100.00;96048.53;5004398;28;19909;-48
2023/09/26 00:12:05;;;;;;;;;;;12.90;57.30;;;8.52;100.00;96055.91;4999664;28;20283;-50
2023/09/26 00:14:31;;;;;;;;;;;12.90;57.30;;;8.47;100.00;96051.34;5009564;28;19970;-47
2023/09/26 00:16:58;;;;;;;;;;;12.80;57.30;;;8.42;100.00;96059.22;5008368;28;20420;-48
2023/09/26 00:19:23;;;;;;;;;;;12.80;57.30;;;8.39;100.00;96065.00;5010748;28;19970;-53
2023/09/26 00:21:50;;;;;;;;;;;12.80;57.30;;;8.35;100.00;96058.53;5009532;28;19913;-47
2023/09/26 00:24:15;;;;;;;;;;;12.80;57.30;;;8.35;100.00;96056.69;5009899;28;19913;-47
2023/09/26 00:26:41;;;;;;;;;;;12.70;57.30;;;8.34;100.00;96059.59;5009545;28;20027;-48
2023/09/26 00:29:07;;;;;;;;;;;12.80;57.40;;;8.31;100.00;96052.09;5010682;28;20283;-46
2023/09/26 00:31:33;;;;;;;;;;;12.70;57.40;;;8.20;100.00;96056.41;5010570;28;20042;-47
2023/09/26 00:33:59;;;;;;;;;;;12.70;57.40;;;8.20;100.00;96056.41;5006120;28;19971;-48
2023/09/26 00:36:24;;;;;;;;;;;12.70;57.40;;;8.19;100.00;96054.78;5010366;28;19919;-52
2023/09/26 00:38:50;;;;;;;;;;;12.60;57.40;;;8.14;100.00;96054.69;5009583;28;19913;-52
2023/09/26 00:41:16;;;;;;;;;;;12.60;57.50;;;8.11;100.00;96057.81;5010650;28;19916;-52
2023/09/26 00:43:41;;;;;;;;;;;12.60;57.50;;;8.08;100.00;96053.81;5010582;28;19956;-50
2023/09/26 00:46:11;;;;;;;;;;;12.50;57.50;;;8.01;100.00;96052.31;5009073;28;19980;-49
2023/09/26 00:48:38;;;;;;;;;;;12.50;57.60;;;8.02;100.00;96056.59;5018658;28;19909;-49
2023/09/26 00:51:07;;;;;;;;;;;12.40;57.60;;;8.01;100.00;96055.78;5004165;28;19912;-47
2023/09/26 00:53:38;;;;;;;;;;;12.40;57.70;;;8.04;100.00;96059.81;5005888;28;20279;-47
2023/09/26 00:56:04;;;;;;;;;;;12.40;57.80;;;8.06;100.00;96061.19;5014492;28;19913;-48
2023/09/26 00:58:33;;;;;;;;;;;12.40;57.90;;;8.05;100.00;96062.25;5002368;28;20300;-48
2023/09/26 01:01:00;;;;;;;;;;;12.40;58.00;;;8.04;100.00;96065.13;5005675;28;19909;-51
2023/09/26 01:03:26;;;;;;;;;;;12.40;58.00;;;8.01;100.00;96066.41;5012469;28;19909;-49
2023/09/26 01:05:52;;;;;;;;;;;12.40;58.00;;;8.01;100.00;96062.94;5005450;28;20404;-49
2023/09/26 01:08:18;;;;;;;;;;;12.40;58.10;;;8.01;100.00;96063.75;5018784;28;19909;-48
2023/09/26 01:10:45;;;;;;;;;;;12.40;58.20;;;7.99;100.00;96073.81;5006835;28;19935;-45
2023/09/26 01:13:11;;;;;;;;;;;12.40;58.20;;;7.98;100.00;96063.41;5003113;28;19909;-48
2023/09/26 01:15:40;;;;;;;;;;;12.40;58.20;;;7.96;100.00;96063.66;5005981;28;19916;-46
2023/09/26 01:18:12;;;;;;;;;;;12.40;58.30;;;7.94;100.00;96067.59;4998355;28;20004;-45
2023/09/26 01:20:44;;;;;;;;;;;12.40;58.30;;;7.91;100.00;96060.91;5005451;28;19912;-49
2023/09/26 01:23:13;;;;;;;;;;;12.30;58.30;;;7.91;100.00;96063.56;5013596;28;19909;-50
2023/09/26 01:25:42;;;;;;;;;;;12.30;58.30;;;7.94;100.00;96068.38;5005203;28;20062;-48
2023/09/26 01:28:12;;;;;;;;;;;12.30;58.40;;;7.93;100.00;96063.31;5010314;28;19916;-47
2023/09/26 01:30:40;;;;;;;;;;;12.30;58.40;;;7.91;100.00;96066.22;5014807;28;19937;-46
2023/09/26 01:33:11;;;;;;;;;;;12.30;58.40;;;7.86;100.00;96061.59;5017403;28;19909;-46
2023/09/26 01:35:37;;;;;;;;;;;12.30;58.50;;;7.85;100.00;96057.34;4986354;28;19979;-51
2023/09/26 01:38:03;;;;;;;;;;;12.30;58.60;;;7.86;100.00;96056.28;5015159;28;20348;-56
2023/09/26 01:40:29;;;;;;;;;;;12.30;58.60;;;7.85;100.00;96056.53;5007051;28;20295;-51
2023/09/26 01:42:54;;;;;;;;;;;12.30;58.60;;;7.78;100.00;96053.22;4999274;28;19924;-48
2023/09/26 01:45:20;;;;;;;;;;;12.20;58.50;;;7.76;100.00;96056.09;5005409;28;19948;-46
2023/09/26 01:47:49;;;;;;;;;;;12.20;58.60;;;7.79;100.00;96052.97;4998097;28;19921;-48
2023/09/26 01:50:17;;;;;;;;;;;12.20;58.70;;;7.80;100.00;96054.59;5005719;28;19910;-45
2023/09/26 01:52:45;;;;;;;;;;;12.20;58.70;;;7.80;100.00;96053.78;5011294;28;20372;-49
2023/09/26 01:55:22;;;;;;;;;;;12.20;58.80;;;7.80;100.00;96059.91;5008400;28;20375;-47
2023/09/26 01:57:49;;;;;;;;;;;12.20;58.80;;;7.81;100.00;96055.41;5009857;28;19916;-46
2023/09/26 02:00:18;;;;;;;;;;;12.20;58.90;;;7.78;100.00;96051.38;4997872;28;19982;-46
2023/09/26 02:02:47;;;;;;;;;;;12.20;59.00;;;7.73;100.00;96063.72;5008102;28;19909;-49
2023/09/26 02:05:17;;;;;;;;;;;12.20;59.00;;;7.69;100.00;96057.28;5007515;28;20303;-46
2023/09/26 02:07:43;;;;;;;;;;;12.20;59.00;;;7.63;100.00;96053.72;4997901;28;20000;-45
2023/09/26 02:10:10;;;;;;;;;;;12.10;58.90;;;7.59;100.00;96055.22;5010051;28;19909;-51
2023/09/26 02:12:37;;;;;;;;;;;12.10;58.90;;;7.54;100.00;96053.25;4994810;28;19958;-48
2023/09/26 02:15:07;;;;;;;;;;;12.10;58.90;;;7.50;100.00;96059.28;5004355;28;19920;-45
2023/09/26 02:17:35;;;;;;;;;;;12.00;58.90;;;7.47;100.00;96065.84;5008398;28;19921;-48
2023/09/26 02:20:05;;;;;;;;;;;12.00;58.90;;;7.42;100.00;96060.44;5003823;28;19917;-47
2023/09/26 02:22:33;;;;;;;;;;;12.00;58.90;;;7.38;100.00;96067.25;5011371;28;19913;-46
2023/09/26 02:24:59;;;;;;;;;;;11.90;59.50;;;7.38;100.00;96069.88;5004134;28;19942;-46
2023/09/26 02:27:24;;;;;;;;;;;11.90;59.00;;;7.35;100.00;96065.84;5009066;28;19963;-53
2023/09/26 02:29:51;;;;;;;;;;;11.90;59.10;;;7.32;100.00;96068.16;5002855;28;19945;-53
2023/09/26 02:32:17;;;;;;;;;;;11.80;59.70;;;7.35;100.00;96071.16;5005443;28;20000;-45
2023/09/26 02:34:43;;;;;;;;;;;11.80;59.10;;;7.39;100.00;96060.88;5006883;28;20383;-47
2023/09/26 02:37:08;;;;;;;;;;;11.80;59.20;;;7.39;100.00;96053.75;5000665;28;19917;-45
2023/09/26 02:39:34;;;;;;;;;;;11.80;59.20;;;7.38;100.00;96059.28;5000172;28;19920;-51
2023/09/26 02:42:00;;;;;;;;;;;11.80;59.30;;;7.40;100.00;96052.72;5006891;28;20017;-47
2023/09/26 02:44:26;;;;;;;;;;;11.80;59.30;;;7.40;100.00;96058.03;5002831;28;19955;-48
2023/09/26 02:46:52;;;;;;;;;;;11.80;59.40;;;7.41;100.00;96056.16;5000810;28;19917;-46
2023/09/26 02:49:17;;;;;;;;;;;11.80;59.50;;;7.37;100.00;96055.84;5003740;28;19920;-49
2023/09/26 02:51:43;;;;;;;;;;;11.80;59.50;;;7.37;100.00;96047.09;4996799;28;19917;-46
2023/09/26 02:54:09;;;;;;;;;;;11.80;59.50;;;7.36;100.00;96048.09;5003698;28;19923;-49
2023/09/26 02:56:34;;;;;;;;;;;11.80;59.50;;;7.31;100.00;96048.81;5008772;28;19909;-51
2023/09/26 02:59:00;;;;;;;;;;;11.80;59.60;;;7.32;100.00;96047.75;5008004;28;20443;-46
2023/09/26 03:01:26;;;;;;;;;;;11.70;59.50;;;7.34;100.00;96048.34;5002628;28;20012;-47
2023/09/26 03:03:53;;;;;;;;;;;11.80;59.60;;;7.36;100.00;96043.63;5005296;28;19917;-47
2023/09/26 03:06:19;;;;;;;;;;;11.70;59.60;;;7.36;100.00;96048.09;5008636;28;19917;-45
2023/09/26 03:08:45;;;;;;;;;;;11.70;59.60;;;7.36;100.00;96037.50;5006029;28;20252;-48
2023/09/26 03:11:11;;;;;;;;;;;11.80;59.70;;;7.37;100.00;96039.94;5008131;28;19916;-48
2023/09/26 03:13:37;;;;;;;;;;;11.80;59.70;;;7.34;100.00;96035.09;5007289;28;20448;-46
2023/09/26 03:16:04;;;;;;;;;;;11.70;59.70;;;7.36;100.00;96037.50;5000756;28;19909;-47
2023/09/26 03:18:30;;;;;;;;;;;11.80;59.80;;;7.38;100.00;96036.22;5018331;23;19927;-44
2023/09/26 03:20:56;;;;;;;;;;;11.70;59.90;;;7.39;100.00;96035.19;5014153;28;20326;-43
2023/09/26 03:23:25;;;;;;;;;;;11.70;59.90;;;7.38;100.00;96022.97;5010739;28;19958;-43
2023/09/26 03:25:50;;;;;;;;;;;11.80;59.90;;;7.39;100.00;96021.13;5026311;28;19909;-44
2023/09/26 03:28:16;;;;;;;;;;;11.80;59.90;;;7.39;100.00;96029.09;5008053;28;19916;-46
2023/09/26 03:30:44;;;;;;;;;;;11.70;59.90;;;7.39;100.00;96029.09;5011254;28;20003;-43
2023/09/26 03:33:10;;;;;;;;;;;11.80;60.00;;;7.35;100.00;96027.94;5015554;28;19947;-43
2023/09/26 03:35:37;;;;;;;;;;;11.80;60.00;;;7.27;100.00;96026.47;5023077;28;19909;-44
2023/09/26 03:38:03;;;;;;;;;;;11.80;60.00;;;7.27;100.00;96025.63;5030018;28;19912;-48
2023/09/26 03:40:28;;;;;;;;;;;11.70;59.90;;;7.21;100.00;96027.41;5030079;28;20317;-46
2023/09/26 03:42:55;;;;;;;;;;;11.70;59.90;;;7.15;100.00;96033.63;5030552;28;19909;-45
2023/09/26 03:45:22;;;;;;;;;;;11.70;59.90;;;7.15;100.00;96033.63;5026602;28;20347;-44
2023/09/26 03:47:48;;;;;;;;;;;11.70;59.90;;;7.14;100.00;96026.69;5030218;28;19909;-48
2023/09/26 03:50:14;;;;;;;;;;;11.60;60.00;;;7.13;100.00;96039.13;5029670;28;19966;-45
2023/09/26 03:52:40;;;;;;;;;;;11.60;60.00;;;7.07;100.00;96033.97;5025805;28;19913;-46
2023/09/26 03:55:06;;;;;;;;;;;11.60;60.00;;;7.07;100.00;96036.59;5030397;28;19954;-45
2023/09/26 03:57:33;;;;;;;;;;;11.50;60.00;;;7.08;100.00;96040.88;5028624;28;20037;-46
2023/09/26 04:00:00;;;;;;;;;;;11.50;60.10;;;7.11;100.00;96043.88;5030626;28;19916;-45
2023/09/26 04:02:26;;;;;;;;;;;11.50;60.20;;;7.09;100.00;96040.66;5029318;28;19917;-43
2023/09/26 04:04:52;;;;;;;;;;;11.50;60.20;;;7.05;100.00;96034.22;5030501;28;19923;-45
2023/09/26 04:07:18;;;;;;;;;;;11.50;60.20;;;7.08;100.00;96038.22;5030208;28;19909;-44
2023/09/26 04:09:44;;;;;;;;;;;11.50;60.20;;;7.04;100.00;96035.22;5028882;28;20314;-43
2023/09/26 04:12:10;;;;;;;;;;;11.50;60.30;;;7.04;100.00;96031.78;5030223;28;20003;-44
2023/09/26 04:14:36;;;;;;;;;;;11.50;60.40;;;7.01;100.00;96027.75;5011493;28;19909;-43
2023/09/26 04:17:02;;;;;;;;;;;11.50;60.40;;;7.00;100.00;96033.28;5027669;28;19909;-43
2023/09/26 04:19:28;;;;;;;;;;;11.50;60.40;;;7.05;100.00;96023.63;5031924;28;19934;-44
2023/09/26 04:21:54;;;;;;;;;;;11.50;60.50;;;7.07;100.00;96023.38;5033022;28;19908;-44
2023/09/26 04:24:21;;;;;;;;;;;11.50;60.60;;;7.03;100.00;96016.94;5016698;28;20469;-48
2023/09/26 04:26:46;;;;;;;;;;;11.50;60.60;;;7.01;100.00;96019.00;5027676;28;19940;-45
2023/09/26 04:29:13;;;;;;;;;;;11.50;60.60;;;7.02;100.00;96017.94;5034269;28;20339;-45
2023/09/26 04:31:39;;;;;;;;;;;11.40;60.60;;;7.04;100.00;96023.81;5034047;28;19908;-43
2023/09/26 04:34:05;;;;;;;;;;;11.50;60.70;;;7.03;100.00;96020.38;5033347;28;19909;-45
2023/09/26 04:36:31;;;;;;;;;;;11.50;60.70;;;7.04;100.00;96024.63;5034280;28;19909;-44
2023/09/26 04:38:57;;;;;;;;;;;11.50;60.70;;;7.01;100.00;96022.44;5032714;28;19909;-44
2023/09/26 04:41:23;;;;;;;;;;;11.40;60.70;;;6.99;100.00;96026.34;5034010;28;20286;-45
2023/09/26 04:43:48;;;;;;;;;;;11.50;60.80;;;6.97;100.00;96028.44;5033111;28;19909;-44
2023/09/26 04:46:16;;;;;;;;;;;11.40;60.70;;;6.93;100.00;96025.44;5032933;28;19999;-42
2023/09/26 04:48:43;;;;;;;;;;;11.40;60.70;;;6.89;100.00;96030.41;5033435;28;20279;-43
2023/09/26 04:51:15;;;;;;;;;;;11.40;60.70;;;6.90;100.00;96031.22;5032875;28;19913;-46
2023/09/26 04:53:41;;;;;;;;;;;11.40;60.80;;;6.90;100.00;96031.22;5033441;28;20113;-43
2023/09/26 04:56:08;;;;;;;;;;;11.40;60.90;;;6.91;100.00;96028.31;5033564;28;19916;-45
2023/09/26 04:58:34;;;;;;;;;;;11.40;61.00;;;6.93;100.00;96026.25;5032487;28;20324;-44
2023/09/26 05:01:11;;;;;;;;;;;11.40;61.00;;;6.91;100.00;96030.16;5033854;28;20355;-45
2023/09/26 05:03:37;;;;;;;;;;;11.40;61.10;;;6.89;100.00;96034.88;5019545;28;19909;-44
2023/09/26 05:06:04;;;;;;;;;;;11.40;61.00;;;6.89;100.00;96035.72;5033893;28;19986;-46
2023/09/26 05:08:29;;;;;;;;;;;11.40;61.10;;;6.89;100.00;96033.06;5031760;28;19917;-45
2023/09/26 05:10:55;;;;;;;;;;;11.40;61.10;;;6.87;100.00;96036.97;5033607;28;19918;-47
2023/09/26 05:13:21;;;;;;;;;;;11.40;61.20;;;6.84;100.00;96038.22;5033726;28;19931;-47
2023/09/26 05:15:46;;;;;;;;;;;11.40;61.20;;;6.83;100.00;96043.72;5030414;28;20264;-46
2023/09/26 05:18:12;;;;;;;;;;;11.40;61.20;;;6.83;100.00;96046.38;5032793;28;20315;-46
2023/09/26 05:20:38;;;;;;;;;;;11.40;61.20;;;6.83;100.00;96043.72;5024659;28;19908;-44
2023/09/26 05:23:04;;;;;;;;;;;11.40;61.20;;;6.82;100.00;96044.78;5033167;28;19960;-44
2023/09/26 05:25:32;;;;;;;;;;;11.40;61.20;;;6.80;100.00;96042.38;5032944;28;19912;-46
2023/09/26 05:27:58;;;;;;;;;;;11.30;61.20;;;6.80;100.00;96038.91;5030522;28;20287;-48
2023/09/26 05:30:23;;;;;;;;;;;11.40;61.20;;;6.79;100.00;96035.44;5032136;28;19982;-45
2023/09/26 05:32:49;;;;;;;;;;;11.40;61.20;;;6.80;100.00;96036.25;5031551;28;19908;-47
2023/09/26 05:35:15;;;;;;;;;;;11.30;61.20;;;6.78;100.00;96046.28;5032775;28;20438;-48
2023/09/26 05:37:41;;;;;;;;;;;11.40;61.20;;;6.78;100.00;96043.63;5032402;28;19916;-50
2023/09/26 05:40:09;;;;;;;;;;;11.40;61.30;;;6.83;100.00;96043.72;5032307;28;20325;-49
2023/09/26 05:42:39;;;;;;;;;;;11.40;61.30;;;6.84;100.00;96043.53;5014777;28;19920;-49
2023/09/26 05:45:08;;;;;;;;;;;11.40;61.30;;;6.85;100.00;96042.47;5031716;28;19913;-50
2023/09/26 05:47:34;;;;;;;;;;;11.40;61.30;;;6.90;100.00;96047.91;5032020;28;19919;-51
2023/09/26 05:50:03;;;;;;;;;;;11.40;61.30;;;6.92;100.00;96051.09;5032180;28;19963;-51
2023/09/26 05:52:28;;;;;;;;;;;11.50;61.30;;;6.91;100.00;96054.00;5030632;28;19915;-48
2023/09/26 05:54:54;;;;;;;;;;;11.50;61.30;;;6.89;100.00;96059.53;5032712;28;20363;-49
2023/09/26 05:57:20;;;;;;;;;;;11.50;61.20;;;6.88;100.00;96052.63;5031541;28;20375;-49
2023/09/26 05:59:47;;;;;;;;;;;11.60;61.30;;;6.87;100.00;96060.81;5032788;28;19978;-54
2023/09/26 06:02:14;;;;;;;;;;;11.60;61.20;;;6.85;100.00;96058.38;5032104;28;19959;-51
2023/09/26 06:04:44;;;;;;;;;;;11.60;61.20;;;6.87;100.00;96071.38;5032046;28;20004;-53
2023/09/26 06:07:10;;;;;;;;;;;11.60;61.10;;;6.89;100.00;96071.94;5032199;28;20355;-52
2023/09/26 06:09:39;;;;;;;;;;;11.60;61.10;;;6.91;100.00;96069.88;5031072;28;19920;-54
2023/09/26 06:12:06;;;;;;;;;;;11.70;61.20;;;6.92;100.00;96069.66;5032335;28;20387;-54
2023/09/26 06:14:33;;;;;;;;;;;11.70;61.20;;;6.94;100.00;96070.22;5028657;28;19916;-52
2023/09/26 06:16:59;;;;;;;;;;;11.70;61.10;;;7.00;100.00;96076.47;5029725;28;19932;-53
2023/09/26 06:19:25;;;;;;;;;;;11.70;61.20;;;7.05;100.00;96079.25;5031351;28;19908;-54
2023/09/26 06:21:51;;;;;;;;;;;11.80;61.20;;;7.11;100.00;96077.50;5031831;28;19913;-50
2023/09/26 06:24:17;;;;;;;;;;;11.80;61.20;;;7.15;100.00;96076.81;5032321;28;20332;-50
2023/09/26 06:26:43;;;;;;;;;;;11.90;61.30;;;7.17;100.00;96079.22;5030458;28;19994;-47
2023/09/26 06:29:09;;;;;;;;;;;11.90;61.30;;;7.22;100.00;96078.53;5030026;28;19912;-48
2023/09/26 06:31:34;;;;;;;;;;;12.00;61.40;;;7.26;100.00;96083.13;4998461;28;19913;-48
2023/09/26 06:34:01;;;;;;;;;;;12.00;61.40;;;7.31;100.00;96075.31;5031090;28;20413;-50
2023/09/26 06:36:31;;;;;;;;;;;12.10;61.40;;;7.42;100.00;96076.31;5014416;28;19909;-47
2023/09/26 06:38:57;;;;;;;;;;;12.20;61.40;;;7.51;100.00;96071.47;5030829;28;19909;-48
2023/09/26 06:41:24;;;;;;;;;;;12.30;61.40;;;7.58;100.00;96080.09;5031923;28;19916;-45
2023/09/26 06:43:50;;;;;;;;;;;12.40;61.40;;;7.69;100.00;96079.28;5030693;28;19917;-51
2023/09/26 06:46:16;;;;;;;;;;;12.50;61.40;;;7.83;100.00;96072.69;5030463;28;20378;-44
2023/09/26 06:48:42;;;;;;;;;;;12.70;61.30;;;8.01;100.00;96079.66;5031191;28;19954;-42
2023/09/26 06:51:08;;;;;;;;;;;12.90;61.30;;;8.23;100.00;96084.31;5031398;28;19908;-52
2023/09/26 06:53:36;;;;;;;;;;;13.10;61.20;;;8.50;100.00;96081.94;5031763;28;19958;-52
2023/09/26 06:56:08;;;;;;;;;;;13.40;61.10;;;8.86;100.00;96074.53;5031696;28;19913;-51
2023/09/26 06:58:35;;;;;;;;;;;13.80;61.10;;;9.30;100.00;96088.78;5030259;28;19912;-51
2023/09/26 07:01:01;;;;;;;;;;;14.30;61.20;;;9.72;100.00;96082.97;5031539;28;19920;-46
2023/09/26 07:03:28;;;;;;;;;;;14.70;61.10;;;10.16;100.00;96080.31;5029447;28;19912;-44
2023/09/26 07:05:55;;;;;;;;;;;15.10;61.10;;;10.49;100.00;96082.00;5031807;28;19935;-44
2023/09/26 07:08:21;;;;;;;;;;;15.60;60.90;;;10.85;100.00;96088.47;5030453;28;20338;-43
2023/09/26 07:10:47;;;;;;;;;;;16.10;60.60;;;11.21;100.00;96086.09;5031102;28;19948;-42
2023/09/26 07:13:13;;;;;;;;;;;16.60;60.30;;;11.56;100.00;96082.03;5030955;28;19917;-43
2023/09/26 07:15:42;;;;;;;;;;;17.00;59.90;;;11.88;100.00;96081.97;5030072;28;20314;-43
2023/09/26 07:18:09;;;;;;;;;;;17.50;59.50;;;12.25;100.00;96094.38;5030076;28;19962;-42
2023/09/26 07:20:38;;;;;;;;;;;18.00;59.30;;;12.57;100.00;96088.88;5027917;28;19912;-50
2023/09/26 07:23:04;;;;;;;;;;;18.40;59.00;;;12.87;100.00;96088.09;5030282;28;19969;-51
2023/09/26 07:25:30;;;;;;;;;;;18.90;58.90;;;13.18;100.00;96090.78;5030781;28;19931;-45
2023/09/26 07:27:56;;;;;;;;;;;19.30;58.60;;;13.45;100.00;96087.84;5029656;28;19959;-49
2023/09/26 07:30:22;;;;;;;;;;;19.70;58.30;;;13.60;100.00;96089.69;5030561;28;19913;-44
2023/09/26 07:32:48;;;;;;;;;;;20.10;57.90;;;13.87;100.00;96086.66;5029763;28;19909;-44
2023/09/26 07:35:14;;;;;;;;;;;20.40;57.50;;;14.23;100.00;96086.56;5030770;28;19939;-48
2023/09/26 07:37:39;;;;;;;;;;;20.70;57.30;;;14.62;100.00;96083.94;5030417;28;20286;-45
2023/09/26 07:40:08;;;;;;;;;;;21.00;57.10;;;14.98;98.42;96089.88;5029641;28;19909;-43
2023/09/26 07:42:36;;;;;;;;;;;21.40;57.10;;;15.32;98.40;96082.88;5028752;28;19917;-47
2023/09/26 07:45:03;;;;;;;;;;;21.80;57.60;;;15.68;94.25;96092.22;5029534;28;19908;-43
2023/09/26 07:47:29;;;;;;;;;;;22.10;56.80;;;15.99;90.52;96091.09;5031013;28;19959;-47
2023/09/26 07:49:55;;;;;;;;;;;22.40;56.70;;;16.33;88.28;96088.28;5030698;28;19944;-45
2023/09/26 07:52:26;;;;;;;;;;;22.80;56.60;;;16.63;83.23;96081.66;5028229;28;20310;-48
2023/09/26 07:54:52;;;;;;;;;;;23.10;56.40;;;16.89;78.72;96084.81;5030127;28;19919;-49
2023/09/26 07:57:19;;;;;;;;;;;23.40;55.80;;;17.14;78.74;96080.13;5007449;28;19952;-48
2023/09/26 07:59:46;;;;;;;;;;;23.60;55.30;;;17.44;77.82;96092.28;5025903;28;20286;-45
2023/09/26 08:02:13;;;;;;;;;;;23.90;55.00;;;17.53;76.45;96083.22;5028049;28;20326;-47
2023/09/26 08:04:38;;;;;;;;;;;24.10;54.60;;;17.51;76.66;96081.94;5028872;28;19912;-45
2023/09/26 08:07:04;;;;;;;;;;;24.30;54.20;;;17.64;76.20;96083.84;5030075;28;19954;-46
2023/09/26 08:09:31;;;;;;;;;;;24.50;53.80;;;17.73;74.35;96079.38;5029014;28;19951;-47
2023/09/26 08:11:58;;;;;;;;;;;24.70;53.50;;;17.82;73.73;96078.72;5030001;28;19908;-45
2023/09/26 08:14:24;;;;;;;;;;;24.90;53.20;;;18.28;73.56;96084.00;5029473;28;19913;-47
2023/09/26 08:16:50;;;;;;;;;;;25.10;53.00;;;18.64;71.16;96078.63;5030039;28;19912;-47
2023/09/26 08:19:16;;;;;;;;;;;25.30;52.70;;;18.79;69.01;96082.13;5030201;28;20286;-47
2023/09/26 08:21:45;;;;;;;;;;;25.50;52.40;;;18.84;67.29;96088.22;5028904;28;20276;-45
2023/09/26 08:24:10;;;;;;;;;;;25.70;52.10;;;18.76;68.06;96083.53;5029776;28;19908;-49
2023/09/26 08:26:36;;;;;;;;;;;25.90;51.70;;;18.98;66.69;96088.16;5029079;28;19919;-49
2023/09/26 08:29:04;;;;;;;;;;;26.00;51.30;;;18.96;66.95;96090.38;5030426;28;20333;-48
2023/09/26 08:31:30;;;;;;;;;;;26.20;51.00;;;19.37;65.06;96084.00;5028156;28;19988;-47
2023/09/26 08:33:56;;;;;;;;;;;26.30;50.70;;;19.47;65.67;96091.84;5028308;28;19913;-49
2023/09/26 08:36:22;;;;;;;;;;;26.50;50.60;;;19.66;63.53;96085.47;5029974;28;19999;-45
2023/09/26 08:38:51;;;;;;;;;;;26.70;50.40;;;19.82;63.19;96089.34;5028252;28;20377;-45
2023/09/26 08:41:18;;;;;;;;;;;26.90;50.20;;;20.17;62.69;96089.47;5028146;28;19916;-48
2023/09/26 08:43:45;;;;;;;;;;;27.10;49.90;;;20.45;61.22;96087.31;5030222;28;19919;-45
2023/09/26 08:46:11;;;;;;;;;;;27.30;49.70;;;20.71;61.52;96088.19;5028920;28;19951;-44
2023/09/26 08:48:40;;;;;;;;;;;27.50;49.50;;;20.84;58.31;96093.75;5030022;28;20275;-44
2023/09/26 08:51:07;;;;;;;;;;;27.70;49.20;;;21.07;57.44;96089.00;5010913;28;20298;-45
2023/09/26 08:53:32;;;;;;;;;;;27.90;48.90;;;21.32;57.38;96090.09;5030206;28;20324;-53
2023/09/26 08:55:58;;;;;;;;;;;28.20;48.70;;;21.41;56.84;96090.94;5012450;28;19909;-49
2023/09/26 08:58:26;;;;;;;;;;;28.40;48.30;;;21.78;54.64;96083.16;5027661;28;19913;-49
2023/09/26 09:00:51;;;;;;;;;;;28.70;48.00;;;21.87;53.59;96082.03;5029463;28;19913;-49
2023/09/26 09:03:18;;;;;;;;;;;28.90;47.70;;;21.94;54.68;96085.03;5026607;28;19908;-50
2023/09/26 09:05:44;;;;;;;;;;;29.10;47.30;;;22.06;52.46;96087.06;5029727;28;20020;-53
2023/09/26 09:08:21;;;;;;;;;;;29.40;47.10;;;22.22;54.05;96091.94;5033199;28;20359;-50
2023/09/26 09:10:55;;;;;;;;;;;29.50;46.70;;;22.63;52.24;96085.81;5032954;28;20268;-54
2023/09/26 09:13:40;;;;;;;;;;;29.70;46.30;;;22.87;51.04;96093.31;5033471;28;19915;-49
2023/09/26 09:16:20;;;;;;;;;;;29.80;46.00;;;22.75;50.34;96088.63;5027172;28;19955;-49
2023/09/26 09:18:51;;;;;;;;;;;30.00;45.80;;;22.80;50.48;96082.19;5033103;28;19917;-55
2023/09/26 09:21:33;;;;;;;;;;;30.10;45.40;;;22.92;51.18;96084.97;5031963;28;19970;-46
2023/09/26 09:24:05;;;;;;;;;;;30.20;45.20;;;23.08;49.63;96085.19;5033046;28;19999;-47
2023/09/26 09:26:36;;;;;;;;;;;30.30;44.90;;;23.00;49.51;96084.16;5014638;28;19913;-47
2023/09/26 09:29:22;;;;;;;;;;;30.50;44.50;;;23.06;48.56;96073.84;5032018;28;20368;-47
2023/09/26 09:31:51;;;;;;;;;;;30.60;44.30;;;23.41;47.84;96068.09;5018627;28;19916;-50
2023/09/26 09:34:17;;;;;;;;;;;30.70;44.10;;;23.60;46.87;96062.16;5030855;28;19916;-49
2023/09/26 09:36:46;;;;;;;;;;;30.90;44.00;;;23.78;45.97;96067.09;5032913;28;19909;-53
2023/09/26 09:39:12;;;;;;;;;;;31.10;43.70;;;24.06;45.60;96060.19;5031929;28;19936;-56
2023/09/26 09:41:39;;;;;;;;;;;31.30;43.20;;;24.43;45.45;96067.25;5032602;28;20435;-56
2023/09/26 09:44:05;;;;;;;;;;;31.50;43.00;;;24.81;44.89;96063.31;5032800;28;19909;-48
2023/09/26 09:46:38;;;;;;;;;;;31.80;42.90;;;24.88;43.60;96058.09;5010994;28;19909;-47
2023/09/26 09:49:11;;;;;;;;;;;32.00;42.50;;;25.25;43.41;96062.66;5027096;28;19923;-49
2023/09/26 09:51:42;;;;;;;;;;;32.30;42.20;;;25.05;44.58;96061.69;5030562;28;19997;-52
2023/09/26 09:54:17;;;;;;;;;;;32.40;41.80;;;24.72;44.54;96061.88;5032689;28;19959;-46
2023/09/26 09:56:46;;;;;;;;;;;32.60;41.60;;;24.91;43.35;96057.41;5031451;28;20006;-44
2023/09/26 09:59:16;;;;;;;;;;;32.80;41.30;;;24.99;42.91;96055.69;5032852;28;19909;-45
2023/09/26 10:01:49;;;;;;;;;;;32.80;41.00;;;25.21;42.58;96051.66;5031984;28;19920;-48
2023/09/26 10:04:16;;;;;;;;;;;33.00;40.90;;;25.38;42.12;96047.81;5031208;28;20325;-45
2023/09/26 10:06:43;;;;;;;;;;;33.20;40.60;;;25.46;42.44;96040.63;5031468;28;19931;-45
2023/09/26 10:09:11;;;;;;;;;;;33.40;40.40;;;25.57;42.64;96030.78;5031373;28;19923;-45
2023/09/26 10:11:37;;;;;;;;;;;33.60;39.90;;;25.82;41.63;96034.16;5032303;28;19934;-46
2023/09/26 10:14:07;;;;;;;;;;;33.60;39.50;;;25.96;41.93;96040.00;5032803;28;19909;-45
2023/09/26 10:16:33;;;;;;;;;;;33.70;39.40;;;26.20;41.00;96040.94;5014195;28;19917;-48
2023/09/26 10:19:00;;;;;;;;;;;33.80;39.20;;;26.13;39.87;96032.56;5031640;28;19916;-55
2023/09/26 10:21:28;;;;;;;;;;;34.00;39.20;;;26.21;41.34;96037.06;5013489;28;19920;-50
2023/09/26 10:24:21;;;;;;;;;;;34.20;38.90;;;26.48;40.51;96033.44;5032039;28;19913;-51
2023/09/26 10:26:50;;;;;;;;;;;34.40;38.60;;;26.06;41.00;96039.44;5031110;28;20355;-53
2023/09/26 10:29:28;;;;;;;;;;;34.50;38.50;;;26.46;40.91;96040.38;5031991;28;19919;-50
2023/09/26 10:32:07;;;;;;;;;;;34.60;38.40;;;26.76;40.59;96032.47;5029974;28;19913;-50
2023/09/26 10:34:38;;;;;;;;;;;34.70;38.30;;;26.92;40.02;96035.94;5030019;28;19912;-52
2023/09/26 10:37:08;;;;;;;;;;;35.00;38.30;;;26.58;39.76;96028.56;5032120;28;19958;-52
2023/09/26 10:39:39;;;;;;;;;;;35.10;38.00;;;26.94;39.76;96021.91;5013122;28;19909;-55
2023/09/26 10:42:23;;;;;;;;;;;35.30;37.70;;;26.99;39.96;96032.56;5014604;28;20324;-50
2023/09/26 10:44:51;;;;;;;;;;;35.40;37.50;;;26.38;40.94;96023.03;5030694;28;19909;-54
2023/09/26 10:47:23;;;;;;;;;;;35.50;37.40;;;26.43;39.74;96022.75;5031555;28;19909;-55
2023/09/26 10:49:50;;;;;;;;;;;35.50;37.80;;;26.79;40.60;96020.03;5031665;28;19974;-50
2023/09/26 10:52:16;;;;;;;;;;;35.50;37.00;;;27.32;40.72;96018.38;5029869;28;20368;-48
2023/09/26 10:54:42;;;;;;;;;;;35.60;37.00;;;27.67;38.97;96010.03;5031382;28;19955;-53
2023/09/26 10:57:20;;;;;;;;;;;35.80;36.80;;;27.50;39.26;96020.66;5030678;28;20061;-50
2023/09/26 10:59:48;;;;;;;;;;;36.00;36.60;;;27.51;39.86;96022.25;5031519;28;20352;-48
2023/09/26 11:02:13;;;;;;;;;;;36.20;36.50;;;27.50;38.28;96024.19;5030974;28;19924;-54
2023/09/26 11:04:39;;;;;;;;;;;36.40;36.30;;;27.88;38.38;96011.56;5029290;28;19909;-51
2023/09/26 11:07:06;;;;;;;;;;;36.50;36.10;;;28.26;37.94;96010.59;5031428;28;19946;-48
2023/09/26 11:09:37;;;;;;;;;;;36.80;35.90;;;28.47;37.95;96014.84;5029429;28;19912;-49
2023/09/26 11:12:04;;;;;;;;;;;37.00;35.70;;;28.66;36.65;96009.25;5030872;28;19913;-51
2023/09/26 11:14:30;;;;;;;;;;;37.20;35.50;;;28.90;36.55;96005.25;5030310;28;19909;-47
2023/09/26 11:16:55;;;;;;;;;;;37.40;34.90;;;28.87;35.10;96005.22;5030327;28;19916;-51
2023/09/26 11:19:26;;;;;;;;;;;37.60;34.80;;;29.00;35.14;96012.81;5031470;28;19909;-50